sensor_id;sensor_type;location;lat;lon;timestamp;P1;durP1;ratioP1;P2;durP2;ratioP2
71753;SDS011;59593;51.716;7.016;2022-12-24T00:00:24;19.23;;;6.73;;
71753;SDS011;59593;51.716;7.016;2022-12-24T00:02:50;21.60;;;6.77;;
71753;SDS011;59593;51.716;7.016;2022-12-24T00:05:15;24.77;;;7.90;;
71753;SDS011;59593;51.716;7.016;2022-12-24T00:07:41;30.63;;;7.90;;
71753;SDS011;59593;51.716;7.016;2022-12-24T00:10:10;22.77;;;7.60;;
71753;SDS011;59593;51.716;7.016;2022-12-24T00:12:44;26.17;;;7.70;;
71753;SDS011;59593;51.716;7.016;2022-12-24T00:15:11;26.90;;;8.20;;
71753;SDS011;59593;51.716;7.016;2022-12-24T00:17:37;31.27;;;8.20;;
71753;SDS011;59593;51.716;7.016;2022-12-24T00:20:02;32.27;;;7.67;;
71753;SDS011;59593;51.716;7.016;2022-12-24T00:22:28;25.00;;;7.17;;
71753;SDS011;59593;51.716;7.016;2022-12-24T00:24:54;29.23;;;7.53;;
71753;SDS011;59593;51.716;7.016;2022-12-24T00:27:20;27.90;;;7.80;;
71753;SDS011;59593;51.716;7.016;2022-12-24T00:29:45;23.57;;;7.00;;
71753;SDS011;59593;51.716;7.016;2022-12-24T00:32:11;30.90;;;7.10;;
71753;SDS011;59593;51.716;7.016;2022-12-24T00:34:36;20.40;;;6.43;;
71753;SDS011;59593;51.716;7.016;2022-12-24T00:37:03;28.67;;;6.87;;
71753;SDS011;59593;51.716;7.016;2022-12-24T00:39:29;31.87;;;7.10;;
71753;SDS011;59593;51.716;7.016;2022-12-24T00:41:55;29.47;;;6.30;;
71753;SDS011;59593;51.716;7.016;2022-12-24T00:44:20;24.27;;;5.93;;
71753;SDS011;59593;51.716;7.016;2022-12-24T00:46:46;23.50;;;6.30;;
71753;SDS011;59593;51.716;7.016;2022-12-24T00:49:15;24.67;;;5.90;;
71753;SDS011;59593;51.716;7.016;2022-12-24T00:51:40;26.77;;;5.90;;
71753;SDS011;59593;51.716;7.016;2022-12-24T00:54:06;25.80;;;5.70;;
71753;SDS011;59593;51.716;7.016;2022-12-24T00:56:32;23.00;;;5.23;;
71753;SDS011;59593;51.716;7.016;2022-12-24T00:58:58;23.10;;;5.67;;
71753;SDS011;59593;51.716;7.016;2022-12-24T01:01:24;30.10;;;5.93;;
71753;SDS011;59593;51.716;7.016;2022-12-24T01:03:50;25.73;;;5.27;;
71753;SDS011;59593;51.716;7.016;2022-12-24T01:06:20;24.07;;;5.27;;
71753;SDS011;59593;51.716;7.016;2022-12-24T01:08:48;27.63;;;5.37;;
71753;SDS011;59593;51.716;7.016;2022-12-24T01:11:15;27.90;;;5.60;;
71753;SDS011;59593;51.716;7.016;2022-12-24T01:13:41;25.67;;;6.03;;
71753;SDS011;59593;51.716;7.016;2022-12-24T01:16:17;20.93;;;5.97;;
71753;SDS011;59593;51.716;7.016;2022-12-24T01:18:44;25.70;;;5.83;;
71753;SDS011;59593;51.716;7.016;2022-12-24T01:21:10;26.47;;;6.20;;
71753;SDS011;59593;51.716;7.016;2022-12-24T01:23:35;21.93;;;5.73;;
71753;SDS011;59593;51.716;7.016;2022-12-24T01:26:01;30.17;;;6.17;;
71753;SDS011;59593;51.716;7.016;2022-12-24T01:28:28;21.97;;;5.43;;
71753;SDS011;59593;51.716;7.016;2022-12-24T01:30:54;28.53;;;6.17;;
71753;SDS011;59593;51.716;7.016;2022-12-24T01:33:19;26.37;;;6.03;;
71753;SDS011;59593;51.716;7.016;2022-12-24T01:35:45;25.23;;;5.57;;
71753;SDS011;59593;51.716;7.016;2022-12-24T01:38:11;25.87;;;5.60;;
71753;SDS011;59593;51.716;7.016;2022-12-24T01:40:39;19.63;;;4.97;;
71753;SDS011;59593;51.716;7.016;2022-12-24T01:43:24;30.27;;;6.50;;
71753;SDS011;59593;51.716;7.016;2022-12-24T01:45:57;31.00;;;6.17;;
71753;SDS011;59593;51.716;7.016;2022-12-24T01:48:33;24.57;;;6.77;;
71753;SDS011;59593;51.716;7.016;2022-12-24T01:56:57;25.00;;;6.03;;
71753;SDS011;59593;51.716;7.016;2022-12-24T01:59:28;26.17;;;5.90;;
71753;SDS011;59593;51.716;7.016;2022-12-24T02:01:54;29.80;;;6.00;;
71753;SDS011;59593;51.716;7.016;2022-12-24T02:04:36;32.57;;;6.70;;
71753;SDS011;59593;51.716;7.016;2022-12-24T02:07:22;27.10;;;6.00;;
71753;SDS011;59593;51.716;7.016;2022-12-24T02:09:48;31.67;;;6.33;;
71753;SDS011;59593;51.716;7.016;2022-12-24T02:12:17;31.37;;;6.00;;
71753;SDS011;59593;51.716;7.016;2022-12-24T02:14:43;30.67;;;6.17;;
71753;SDS011;59593;51.716;7.016;2022-12-24T02:20:02;25.70;;;6.57;;
71753;SDS011;59593;51.716;7.016;2022-12-24T02:30:50;28.27;;;6.10;;
71753;SDS011;59593;51.716;7.016;2022-12-24T02:36:00;30.97;;;6.73;;
71753;SDS011;59593;51.716;7.016;2022-12-24T02:38:31;26.40;;;6.10;;
71753;SDS011;59593;51.716;7.016;2022-12-24T02:41:09;35.63;;;6.27;;
71753;SDS011;59593;51.716;7.016;2022-12-24T02:43:40;35.30;;;6.10;;
71753;SDS011;59593;51.716;7.016;2022-12-24T02:46:10;29.10;;;6.20;;
71753;SDS011;59593;51.716;7.016;2022-12-24T02:48:40;29.37;;;5.93;;
71753;SDS011;59593;51.716;7.016;2022-12-24T02:51:07;27.13;;;6.50;;
71753;SDS011;59593;51.716;7.016;2022-12-24T02:53:34;30.20;;;6.63;;
71753;SDS011;59593;51.716;7.016;2022-12-24T02:56:19;27.10;;;5.90;;
71753;SDS011;59593;51.716;7.016;2022-12-24T03:01:50;28.90;;;6.10;;
71753;SDS011;59593;51.716;7.016;2022-12-24T03:04:59;31.23;;;6.63;;
71753;SDS011;59593;51.716;7.016;2022-12-24T03:10:08;28.23;;;6.67;;
71753;SDS011;59593;51.716;7.016;2022-12-24T03:12:47;28.40;;;6.30;;
71753;SDS011;59593;51.716;7.016;2022-12-24T03:15:16;32.70;;;6.60;;
71753;SDS011;59593;51.716;7.016;2022-12-24T03:17:46;26.30;;;6.63;;
71753;SDS011;59593;51.716;7.016;2022-12-24T03:20:18;31.17;;;7.17;;
71753;SDS011;59593;51.716;7.016;2022-12-24T03:22:47;30.40;;;6.83;;
71753;SDS011;59593;51.716;7.016;2022-12-24T03:25:16;30.27;;;7.20;;
71753;SDS011;59593;51.716;7.016;2022-12-24T03:27:42;26.70;;;6.33;;
71753;SDS011;59593;51.716;7.016;2022-12-24T03:30:12;31.53;;;7.07;;
71753;SDS011;59593;51.716;7.016;2022-12-24T03:32:39;27.30;;;6.97;;
71753;SDS011;59593;51.716;7.016;2022-12-24T03:35:06;34.67;;;7.43;;
71753;SDS011;59593;51.716;7.016;2022-12-24T03:37:32;29.10;;;6.40;;
71753;SDS011;59593;51.716;7.016;2022-12-24T03:39:58;25.87;;;6.27;;
71753;SDS011;59593;51.716;7.016;2022-12-24T03:42:24;28.93;;;6.43;;
71753;SDS011;59593;51.716;7.016;2022-12-24T03:44:49;29.80;;;6.43;;
71753;SDS011;59593;51.716;7.016;2022-12-24T03:47:15;28.03;;;6.23;;
71753;SDS011;59593;51.716;7.016;2022-12-24T03:49:43;27.13;;;6.33;;
71753;SDS011;59593;51.716;7.016;2022-12-24T03:52:09;26.23;;;6.93;;
71753;SDS011;59593;51.716;7.016;2022-12-24T03:54:34;38.53;;;6.93;;
71753;SDS011;59593;51.716;7.016;2022-12-24T03:57:00;27.27;;;6.63;;
71753;SDS011;59593;51.716;7.016;2022-12-24T03:59:25;25.70;;;5.93;;
71753;SDS011;59593;51.716;7.016;2022-12-24T04:01:52;37.73;;;6.73;;
71753;SDS011;59593;51.716;7.016;2022-12-24T04:04:17;24.77;;;5.90;;
71753;SDS011;59593;51.716;7.016;2022-12-24T04:06:43;34.97;;;7.00;;
71753;SDS011;59593;51.716;7.016;2022-12-24T04:09:09;36.30;;;6.83;;
71753;SDS011;59593;51.716;7.016;2022-12-24T04:11:35;34.30;;;7.07;;
71753;SDS011;59593;51.716;7.016;2022-12-24T04:14:00;33.07;;;7.17;;
71753;SDS011;59593;51.716;7.016;2022-12-24T04:16:26;29.67;;;7.07;;
71753;SDS011;59593;51.716;7.016;2022-12-24T04:18:51;35.43;;;7.07;;
71753;SDS011;59593;51.716;7.016;2022-12-24T04:21:17;34.47;;;7.20;;
71753;SDS011;59593;51.716;7.016;2022-12-24T04:23:43;26.67;;;6.80;;
71753;SDS011;59593;51.716;7.016;2022-12-24T04:26:09;29.43;;;7.27;;
71753;SDS011;59593;51.716;7.016;2022-12-24T04:28:37;32.00;;;7.07;;
71753;SDS011;59593;51.716;7.016;2022-12-24T04:31:04;29.50;;;6.73;;
71753;SDS011;59593;51.716;7.016;2022-12-24T04:33:33;29.07;;;7.03;;
71753;SDS011;59593;51.716;7.016;2022-12-24T04:36:00;31.00;;;6.70;;
71753;SDS011;59593;51.716;7.016;2022-12-24T04:38:26;33.10;;;7.33;;
71753;SDS011;59593;51.716;7.016;2022-12-24T04:40:59;36.83;;;7.43;;
71753;SDS011;59593;51.716;7.016;2022-12-24T04:43:27;27.80;;;7.50;;
71753;SDS011;59593;51.716;7.016;2022-12-24T04:45:53;28.03;;;6.67;;
71753;SDS011;59593;51.716;7.016;2022-12-24T04:48:19;35.87;;;8.13;;
71753;SDS011;59593;51.716;7.016;2022-12-24T04:50:45;28.17;;;6.17;;
71753;SDS011;59593;51.716;7.016;2022-12-24T04:53:10;28.00;;;6.97;;
71753;SDS011;59593;51.716;7.016;2022-12-24T04:55:42;31.43;;;6.70;;
71753;SDS011;59593;51.716;7.016;2022-12-24T04:58:09;31.63;;;7.27;;
71753;SDS011;59593;51.716;7.016;2022-12-24T05:00:34;26.53;;;6.37;;
71753;SDS011;59593;51.716;7.016;2022-12-24T05:03:00;31.57;;;6.60;;
71753;SDS011;59593;51.716;7.016;2022-12-24T05:05:25;28.80;;;6.03;;
71753;SDS011;59593;51.716;7.016;2022-12-24T05:07:51;37.47;;;7.37;;
71753;SDS011;59593;51.716;7.016;2022-12-24T05:10:17;29.23;;;6.27;;
71753;SDS011;59593;51.716;7.016;2022-12-24T05:12:43;32.43;;;6.33;;
71753;SDS011;59593;51.716;7.016;2022-12-24T05:15:08;27.63;;;6.00;;
71753;SDS011;59593;51.716;7.016;2022-12-24T05:17:34;35.03;;;7.13;;
71753;SDS011;59593;51.716;7.016;2022-12-24T05:20:00;28.57;;;6.70;;
71753;SDS011;59593;51.716;7.016;2022-12-24T05:22:25;29.63;;;6.90;;
71753;SDS011;59593;51.716;7.016;2022-12-24T05:25:09;31.43;;;6.23;;
71753;SDS011;59593;51.716;7.016;2022-12-24T05:27:53;29.37;;;5.80;;
71753;SDS011;59593;51.716;7.016;2022-12-24T05:30:19;29.30;;;6.07;;
71753;SDS011;59593;51.716;7.016;2022-12-24T05:32:45;31.57;;;6.40;;
71753;SDS011;59593;51.716;7.016;2022-12-24T05:35:10;28.17;;;5.93;;
71753;SDS011;59593;51.716;7.016;2022-12-24T05:37:36;28.33;;;5.67;;
71753;SDS011;59593;51.716;7.016;2022-12-24T05:40:01;26.63;;;6.30;;
71753;SDS011;59593;51.716;7.016;2022-12-24T05:42:27;28.30;;;6.03;;
71753;SDS011;59593;51.716;7.016;2022-12-24T05:44:52;29.33;;;6.17;;
71753;SDS011;59593;51.716;7.016;2022-12-24T05:47:18;33.00;;;6.60;;
71753;SDS011;59593;51.716;7.016;2022-12-24T05:49:44;24.43;;;6.27;;
71753;SDS011;59593;51.716;7.016;2022-12-24T05:52:09;24.23;;;6.03;;
71753;SDS011;59593;51.716;7.016;2022-12-24T05:54:35;25.23;;;6.20;;
71753;SDS011;59593;51.716;7.016;2022-12-24T05:57:00;32.53;;;6.63;;
71753;SDS011;59593;51.716;7.016;2022-12-24T05:59:26;22.63;;;5.63;;
71753;SDS011;59593;51.716;7.016;2022-12-24T06:01:52;27.27;;;6.23;;
71753;SDS011;59593;51.716;7.016;2022-12-24T06:04:17;22.93;;;6.07;;
71753;SDS011;59593;51.716;7.016;2022-12-24T06:06:43;22.30;;;5.50;;
71753;SDS011;59593;51.716;7.016;2022-12-24T06:09:08;23.33;;;5.47;;
71753;SDS011;59593;51.716;7.016;2022-12-24T06:11:34;26.67;;;5.93;;
71753;SDS011;59593;51.716;7.016;2022-12-24T06:14:00;25.20;;;5.87;;
71753;SDS011;59593;51.716;7.016;2022-12-24T06:16:25;24.20;;;5.60;;
71753;SDS011;59593;51.716;7.016;2022-12-24T06:18:51;23.33;;;6.03;;
71753;SDS011;59593;51.716;7.016;2022-12-24T06:21:17;18.37;;;5.60;;
71753;SDS011;59593;51.716;7.016;2022-12-24T06:23:43;21.77;;;5.93;;
71753;SDS011;59593;51.716;7.016;2022-12-24T06:26:11;24.87;;;5.83;;
71753;SDS011;59593;51.716;7.016;2022-12-24T06:28:39;29.50;;;6.50;;
71753;SDS011;59593;51.716;7.016;2022-12-24T06:31:05;21.80;;;5.47;;
71753;SDS011;59593;51.716;7.016;2022-12-24T06:33:35;22.30;;;5.60;;
71753;SDS011;59593;51.716;7.016;2022-12-24T06:36:01;22.50;;;6.17;;
71753;SDS011;59593;51.716;7.016;2022-12-24T06:38:30;26.50;;;7.53;;
71753;SDS011;59593;51.716;7.016;2022-12-24T06:40:55;26.93;;;6.70;;
71753;SDS011;59593;51.716;7.016;2022-12-24T06:43:21;31.83;;;6.80;;
71753;SDS011;59593;51.716;7.016;2022-12-24T06:45:46;27.90;;;6.73;;
71753;SDS011;59593;51.716;7.016;2022-12-24T06:48:12;22.43;;;6.27;;
71753;SDS011;59593;51.716;7.016;2022-12-24T06:50:39;24.10;;;6.30;;
71753;SDS011;59593;51.716;7.016;2022-12-24T06:53:04;20.90;;;6.03;;
71753;SDS011;59593;51.716;7.016;2022-12-24T06:55:30;28.20;;;6.83;;
71753;SDS011;59593;51.716;7.016;2022-12-24T06:57:56;27.57;;;6.20;;
71753;SDS011;59593;51.716;7.016;2022-12-24T07:00:22;28.70;;;6.70;;
71753;SDS011;59593;51.716;7.016;2022-12-24T07:02:48;27.43;;;6.27;;
71753;SDS011;59593;51.716;7.016;2022-12-24T07:05:14;31.53;;;6.13;;
71753;SDS011;59593;51.716;7.016;2022-12-24T07:07:41;24.10;;;7.40;;
71753;SDS011;59593;51.716;7.016;2022-12-24T07:10:12;24.43;;;6.50;;
71753;SDS011;59593;51.716;7.016;2022-12-24T07:12:39;32.87;;;7.10;;
71753;SDS011;59593;51.716;7.016;2022-12-24T07:15:05;21.63;;;5.80;;
71753;SDS011;59593;51.716;7.016;2022-12-24T07:17:32;27.63;;;6.47;;
71753;SDS011;59593;51.716;7.016;2022-12-24T07:19:58;29.80;;;7.70;;
71753;SDS011;59593;51.716;7.016;2022-12-24T07:22:23;26.73;;;6.87;;
71753;SDS011;59593;51.716;7.016;2022-12-24T07:24:49;27.03;;;7.03;;
71753;SDS011;59593;51.716;7.016;2022-12-24T07:27:18;28.77;;;6.90;;
71753;SDS011;59593;51.716;7.016;2022-12-24T07:29:43;34.03;;;6.73;;
71753;SDS011;59593;51.716;7.016;2022-12-24T07:32:09;22.13;;;6.20;;
71753;SDS011;59593;51.716;7.016;2022-12-24T07:34:35;27.33;;;6.50;;
71753;SDS011;59593;51.716;7.016;2022-12-24T07:37:00;29.53;;;7.10;;
71753;SDS011;59593;51.716;7.016;2022-12-24T07:39:26;26.17;;;6.23;;
71753;SDS011;59593;51.716;7.016;2022-12-24T07:41:51;23.93;;;6.63;;
71753;SDS011;59593;51.716;7.016;2022-12-24T07:44:17;28.03;;;6.70;;
71753;SDS011;59593;51.716;7.016;2022-12-24T07:46:43;30.47;;;6.77;;
71753;SDS011;59593;51.716;7.016;2022-12-24T07:49:09;23.87;;;5.87;;
71753;SDS011;59593;51.716;7.016;2022-12-24T07:51:35;26.67;;;6.47;;
71753;SDS011;59593;51.716;7.016;2022-12-24T07:54:01;24.73;;;6.60;;
71753;SDS011;59593;51.716;7.016;2022-12-24T07:56:28;25.50;;;6.23;;
71753;SDS011;59593;51.716;7.016;2022-12-24T07:58:55;24.03;;;5.90;;
71753;SDS011;59593;51.716;7.016;2022-12-24T08:01:20;23.03;;;6.70;;
71753;SDS011;59593;51.716;7.016;2022-12-24T08:03:46;27.57;;;6.93;;
71753;SDS011;59593;51.716;7.016;2022-12-24T08:06:12;20.63;;;5.97;;
71753;SDS011;59593;51.716;7.016;2022-12-24T08:08:37;28.70;;;6.37;;
71753;SDS011;59593;51.716;7.016;2022-12-24T08:11:04;23.47;;;6.17;;
71753;SDS011;59593;51.716;7.016;2022-12-24T08:13:31;25.37;;;6.27;;
71753;SDS011;59593;51.716;7.016;2022-12-24T08:15:57;26.33;;;6.10;;
71753;SDS011;59593;51.716;7.016;2022-12-24T08:18:23;24.30;;;5.90;;
71753;SDS011;59593;51.716;7.016;2022-12-24T08:20:49;23.60;;;5.50;;
71753;SDS011;59593;51.716;7.016;2022-12-24T08:23:15;17.60;;;5.40;;
71753;SDS011;59593;51.716;7.016;2022-12-24T08:25:44;21.00;;;5.03;;
71753;SDS011;59593;51.716;7.016;2022-12-24T08:28:15;26.60;;;5.80;;
71753;SDS011;59593;51.716;7.016;2022-12-24T08:30:43;23.63;;;5.67;;
71753;SDS011;59593;51.716;7.016;2022-12-24T08:33:09;24.53;;;5.60;;
71753;SDS011;59593;51.716;7.016;2022-12-24T08:35:35;24.03;;;5.30;;
71753;SDS011;59593;51.716;7.016;2022-12-24T08:38:00;28.07;;;6.17;;
71753;SDS011;59593;51.716;7.016;2022-12-24T08:40:26;23.10;;;5.57;;
71753;SDS011;59593;51.716;7.016;2022-12-24T08:42:52;27.87;;;6.00;;
71753;SDS011;59593;51.716;7.016;2022-12-24T08:45:17;20.27;;;5.60;;
71753;SDS011;59593;51.716;7.016;2022-12-24T08:47:43;29.93;;;6.10;;
71753;SDS011;59593;51.716;7.016;2022-12-24T08:50:09;24.17;;;5.43;;
71753;SDS011;59593;51.716;7.016;2022-12-24T08:52:35;23.77;;;5.83;;
71753;SDS011;59593;51.716;7.016;2022-12-24T08:55:01;22.97;;;5.27;;
71753;SDS011;59593;51.716;7.016;2022-12-24T08:57:27;29.77;;;6.10;;
71753;SDS011;59593;51.716;7.016;2022-12-24T08:59:53;25.50;;;6.23;;
71753;SDS011;59593;51.716;7.016;2022-12-24T09:02:19;20.87;;;5.70;;
71753;SDS011;59593;51.716;7.016;2022-12-24T09:04:45;23.40;;;5.80;;
71753;SDS011;59593;51.716;7.016;2022-12-24T09:07:10;27.20;;;6.77;;
71753;SDS011;59593;51.716;7.016;2022-12-24T09:09:37;25.40;;;7.47;;
71753;SDS011;59593;51.716;7.016;2022-12-24T09:12:03;27.43;;;7.37;;
71753;SDS011;59593;51.716;7.016;2022-12-24T09:14:31;32.60;;;7.00;;
71753;SDS011;59593;51.716;7.016;2022-12-24T09:16:57;28.70;;;7.30;;
71753;SDS011;59593;51.716;7.016;2022-12-24T09:19:23;24.73;;;7.87;;
71753;SDS011;59593;51.716;7.016;2022-12-24T09:21:49;32.07;;;8.17;;
71753;SDS011;59593;51.716;7.016;2022-12-24T09:24:15;29.17;;;7.37;;
71753;SDS011;59593;51.716;7.016;2022-12-24T09:26:41;31.17;;;6.83;;
71753;SDS011;59593;51.716;7.016;2022-12-24T09:29:06;25.57;;;7.67;;
71753;SDS011;59593;51.716;7.016;2022-12-24T09:31:33;29.13;;;7.27;;
71753;SDS011;59593;51.716;7.016;2022-12-24T09:33:59;32.37;;;7.37;;
71753;SDS011;59593;51.716;7.016;2022-12-24T09:36:26;24.23;;;6.40;;
71753;SDS011;59593;51.716;7.016;2022-12-24T09:38:52;27.47;;;6.97;;
71753;SDS011;59593;51.716;7.016;2022-12-24T09:44:05;29.73;;;7.23;;
71753;SDS011;59593;51.716;7.016;2022-12-24T09:46:41;31.50;;;6.50;;
71753;SDS011;59593;51.716;7.016;2022-12-24T09:49:12;27.07;;;6.50;;
71753;SDS011;59593;51.716;7.016;2022-12-24T09:51:44;31.17;;;7.23;;
71753;SDS011;59593;51.716;7.016;2022-12-24T09:54:16;29.03;;;6.60;;
71753;SDS011;59593;51.716;7.016;2022-12-24T09:57:05;27.70;;;7.13;;
71753;SDS011;59593;51.716;7.016;2022-12-24T09:59:46;29.57;;;7.50;;
71753;SDS011;59593;51.716;7.016;2022-12-24T10:02:13;27.67;;;6.60;;
71753;SDS011;59593;51.716;7.016;2022-12-24T10:04:42;25.07;;;6.37;;
71753;SDS011;59593;51.716;7.016;2022-12-24T10:07:19;29.20;;;7.23;;
71753;SDS011;59593;51.716;7.016;2022-12-24T10:15:28;29.77;;;7.60;;
71753;SDS011;59593;51.716;7.016;2022-12-24T10:20:44;32.57;;;6.50;;
71753;SDS011;59593;51.716;7.016;2022-12-24T10:26:25;28.13;;;6.53;;
71753;SDS011;59593;51.716;7.016;2022-12-24T10:29:10;27.67;;;7.30;;
71753;SDS011;59593;51.716;7.016;2022-12-24T10:32:20;27.77;;;6.87;;
71753;SDS011;59593;51.716;7.016;2022-12-24T10:34:44;34.27;;;6.80;;
71753;SDS011;59593;51.716;7.016;2022-12-24T10:37:19;30.00;;;6.03;;
71753;SDS011;59593;51.716;7.016;2022-12-24T10:39:48;27.70;;;6.23;;
71753;SDS011;59593;51.716;7.016;2022-12-24T10:42:14;30.90;;;6.33;;
71753;SDS011;59593;51.716;7.016;2022-12-24T10:44:42;27.87;;;6.20;;
71753;SDS011;59593;51.716;7.016;2022-12-24T10:47:17;30.77;;;6.73;;
71753;SDS011;59593;51.716;7.016;2022-12-24T10:49:47;26.00;;;5.93;;
71753;SDS011;59593;51.716;7.016;2022-12-24T10:52:21;29.87;;;6.47;;
71753;SDS011;59593;51.716;7.016;2022-12-24T10:55:05;24.57;;;6.20;;
71753;SDS011;59593;51.716;7.016;2022-12-24T10:57:45;31.30;;;6.07;;
71753;SDS011;59593;51.716;7.016;2022-12-24T11:00:21;29.47;;;6.63;;
71753;SDS011;59593;51.716;7.016;2022-12-24T11:02:48;30.75;;;6.43;;
71753;SDS011;59593;51.716;7.016;2022-12-24T11:05:28;29.73;;;6.17;;
71753;SDS011;59593;51.716;7.016;2022-12-24T11:07:59;30.67;;;6.77;;
71753;SDS011;59593;51.716;7.016;2022-12-24T11:10:27;26.37;;;7.93;;
71753;SDS011;59593;51.716;7.016;2022-12-24T11:12:53;31.83;;;6.70;;
71753;SDS011;59593;51.716;7.016;2022-12-24T11:15:23;34.17;;;6.77;;
71753;SDS011;59593;51.716;7.016;2022-12-24T11:17:57;23.97;;;6.80;;
71753;SDS011;59593;51.716;7.016;2022-12-24T11:20:28;26.37;;;6.63;;
71753;SDS011;59593;51.716;7.016;2022-12-24T11:22:56;29.87;;;6.63;;
71753;SDS011;59593;51.716;7.016;2022-12-24T11:25:26;26.83;;;7.27;;
71753;SDS011;59593;51.716;7.016;2022-12-24T11:27:55;27.57;;;6.90;;
71753;SDS011;59593;51.716;7.016;2022-12-24T11:30:33;26.10;;;6.47;;
71753;SDS011;59593;51.716;7.016;2022-12-24T11:35:26;23.90;;;6.30;;
71753;SDS011;59593;51.716;7.016;2022-12-24T11:40:39;24.10;;;7.13;;
71753;SDS011;59593;51.716;7.016;2022-12-24T11:43:10;24.97;;;6.97;;
71753;SDS011;59593;51.716;7.016;2022-12-24T11:45:39;29.30;;;7.33;;
71753;SDS011;59593;51.716;7.016;2022-12-24T11:48:26;24.97;;;6.70;;
71753;SDS011;59593;51.716;7.016;2022-12-24T11:51:00;29.20;;;7.00;;
71753;SDS011;59593;51.716;7.016;2022-12-24T11:53:43;26.47;;;6.60;;
71753;SDS011;59593;51.716;7.016;2022-12-24T11:56:16;25.73;;;6.50;;
71753;SDS011;59593;51.716;7.016;2022-12-24T11:58:50;26.77;;;6.63;;
71753;SDS011;59593;51.716;7.016;2022-12-24T12:03:59;29.63;;;7.07;;
71753;SDS011;59593;51.716;7.016;2022-12-24T12:06:49;25.43;;;6.70;;
71753;SDS011;59593;51.716;7.016;2022-12-24T12:09:30;28.63;;;7.50;;
71753;SDS011;59593;51.716;7.016;2022-12-24T12:12:06;24.20;;;6.83;;
71753;SDS011;59593;51.716;7.016;2022-12-24T12:14:42;25.90;;;6.80;;
71753;SDS011;59593;51.716;7.016;2022-12-24T12:17:23;32.20;;;7.17;;
71753;SDS011;59593;51.716;7.016;2022-12-24T12:20:29;28.57;;;7.40;;
71753;SDS011;59593;51.716;7.016;2022-12-24T12:23:20;32.00;;;7.07;;
71753;SDS011;59593;51.716;7.016;2022-12-24T12:25:53;30.23;;;7.40;;
71753;SDS011;59593;51.716;7.016;2022-12-24T12:28:23;31.57;;;7.60;;
71753;SDS011;59593;51.716;7.016;2022-12-24T12:31:14;31.03;;;7.83;;
71753;SDS011;59593;51.716;7.016;2022-12-24T12:36:35;29.37;;;6.80;;
71753;SDS011;59593;51.716;7.016;2022-12-24T12:39:13;25.43;;;6.40;;
71753;SDS011;59593;51.716;7.016;2022-12-24T12:49:32;26.05;;;7.07;;
71753;SDS011;59593;51.716;7.016;2022-12-24T12:57:53;25.87;;;7.17;;
71753;SDS011;59593;51.716;7.016;2022-12-24T13:00:24;26.30;;;7.37;;
71753;SDS011;59593;51.716;7.016;2022-12-24T13:03:21;24.57;;;6.83;;
71753;SDS011;59593;51.716;7.016;2022-12-24T13:05:48;24.87;;;6.77;;
71753;SDS011;59593;51.716;7.016;2022-12-24T13:12:24;27.40;;;7.47;;
71753;SDS011;59593;51.716;7.016;2022-12-24T13:14:25;27.63;;;8.00;;
71753;SDS011;59593;51.716;7.016;2022-12-24T13:22:23;29.90;;;9.17;;
71753;SDS011;59593;51.716;7.016;2022-12-24T13:24:50;24.57;;;6.70;;
71753;SDS011;59593;51.716;7.016;2022-12-24T13:35:30;28.97;;;7.27;;
71753;SDS011;59593;51.716;7.016;2022-12-24T13:37:47;26.83;;;7.07;;
71753;SDS011;59593;51.716;7.016;2022-12-24T13:40:24;20.60;;;6.77;;
71753;SDS011;59593;51.716;7.016;2022-12-24T13:48:39;23.03;;;7.60;;
71753;SDS011;59593;51.716;7.016;2022-12-24T13:56:35;24.67;;;7.10;;
71753;SDS011;59593;51.716;7.016;2022-12-24T14:01:43;19.30;;;6.30;;
71753;SDS011;59593;51.716;7.016;2022-12-24T14:04:12;30.15;;;9.52;;
71753;SDS011;59593;51.716;7.016;2022-12-24T14:06:49;24.75;;;7.57;;
71753;SDS011;59593;51.716;7.016;2022-12-24T14:09:17;28.30;;;7.00;;
71753;SDS011;59593;51.716;7.016;2022-12-24T14:14:30;24.08;;;7.18;;
71753;SDS011;59593;51.716;7.016;2022-12-24T14:17:23;26.63;;;6.60;;
71753;SDS011;59593;51.716;7.016;2022-12-24T14:19:50;25.52;;;7.07;;
71753;SDS011;59593;51.716;7.016;2022-12-24T14:22:19;21.80;;;7.05;;
71753;SDS011;59593;51.716;7.016;2022-12-24T14:27:43;21.30;;;7.43;;
71753;SDS011;59593;51.716;7.016;2022-12-24T14:32:53;20.67;;;6.72;;
71753;SDS011;59593;51.716;7.016;2022-12-24T14:37:51;25.20;;;8.27;;
71753;SDS011;59593;51.716;7.016;2022-12-24T14:40:25;22.07;;;7.40;;
71753;SDS011;59593;51.716;7.016;2022-12-24T14:46:29;23.53;;;7.40;;
71753;SDS011;59593;51.716;7.016;2022-12-24T14:52:16;23.30;;;7.33;;
71753;SDS011;59593;51.716;7.016;2022-12-24T15:00:53;25.53;;;8.03;;
71753;SDS011;59593;51.716;7.016;2022-12-24T15:03:22;26.27;;;8.00;;
71753;SDS011;59593;51.716;7.016;2022-12-24T15:05:50;29.03;;;8.93;;
71753;SDS011;59593;51.716;7.016;2022-12-24T15:08:20;23.77;;;8.10;;
71753;SDS011;59593;51.716;7.016;2022-12-24T15:11:05;23.93;;;8.63;;
71753;SDS011;59593;51.716;7.016;2022-12-24T15:13:34;29.73;;;8.00;;
71753;SDS011;59593;51.716;7.016;2022-12-24T15:16:05;30.97;;;8.70;;
71753;SDS011;59593;51.716;7.016;2022-12-24T15:18:33;29.33;;;9.27;;
71753;SDS011;59593;51.716;7.016;2022-12-24T15:21:03;23.33;;;8.13;;
71753;SDS011;59593;51.716;7.016;2022-12-24T15:23:32;27.13;;;9.20;;
71753;SDS011;59593;51.716;7.016;2022-12-24T15:26:08;28.43;;;10.93;;
71753;SDS011;59593;51.716;7.016;2022-12-24T15:28:41;24.80;;;8.87;;
71753;SDS011;59593;51.716;7.016;2022-12-24T15:31:11;24.20;;;8.27;;
71753;SDS011;59593;51.716;7.016;2022-12-24T15:33:44;27.20;;;9.10;;
71753;SDS011;59593;51.716;7.016;2022-12-24T15:36:11;31.30;;;11.80;;
71753;SDS011;59593;51.716;7.016;2022-12-24T15:38:49;27.07;;;10.50;;
71753;SDS011;59593;51.716;7.016;2022-12-24T15:41:22;26.60;;;11.17;;
71753;SDS011;59593;51.716;7.016;2022-12-24T15:43:51;27.83;;;10.40;;
71753;SDS011;59593;51.716;7.016;2022-12-24T15:46:19;27.33;;;9.90;;
71753;SDS011;59593;51.716;7.016;2022-12-24T15:48:47;26.27;;;10.37;;
71753;SDS011;59593;51.716;7.016;2022-12-24T15:51:19;22.23;;;9.50;;
71753;SDS011;59593;51.716;7.016;2022-12-24T15:53:50;26.50;;;11.90;;
71753;SDS011;59593;51.716;7.016;2022-12-24T15:56:31;22.67;;;9.60;;
71753;SDS011;59593;51.716;7.016;2022-12-24T16:01:43;22.73;;;10.20;;
71753;SDS011;59593;51.716;7.016;2022-12-24T16:04:11;21.23;;;9.33;;
71753;SDS011;59593;51.716;7.016;2022-12-24T16:06:57;26.17;;;9.47;;
71753;SDS011;59593;51.716;7.016;2022-12-24T16:09:42;23.97;;;9.27;;
71753;SDS011;59593;51.716;7.016;2022-12-24T16:12:19;22.37;;;8.47;;
71753;SDS011;59593;51.716;7.016;2022-12-24T16:14:51;24.40;;;8.90;;
71753;SDS011;59593;51.716;7.016;2022-12-24T16:17:22;20.80;;;8.50;;
71753;SDS011;59593;51.716;7.016;2022-12-24T16:19:51;23.73;;;8.87;;
71753;SDS011;59593;51.716;7.016;2022-12-24T16:22:20;19.50;;;8.77;;
71753;SDS011;59593;51.716;7.016;2022-12-24T16:25:00;22.53;;;8.90;;
71753;SDS011;59593;51.716;7.016;2022-12-24T16:27:39;23.33;;;10.30;;
71753;SDS011;59593;51.716;7.016;2022-12-24T16:30:05;19.03;;;9.77;;
71753;SDS011;59593;51.716;7.016;2022-12-24T16:32:33;27.70;;;11.17;;
71753;SDS011;59593;51.716;7.016;2022-12-24T16:35:01;26.73;;;12.70;;
71753;SDS011;59593;51.716;7.016;2022-12-24T16:37:28;28.40;;;13.77;;
71753;SDS011;59593;51.716;7.016;2022-12-24T16:39:54;26.43;;;14.27;;
71753;SDS011;59593;51.716;7.016;2022-12-24T16:42:20;26.27;;;14.67;;
71753;SDS011;59593;51.716;7.016;2022-12-24T16:45:05;26.77;;;14.10;;
71753;SDS011;59593;51.716;7.016;2022-12-24T16:47:31;24.67;;;13.60;;